This is the latest recevied weather packets stored in our database for station/object K2ATL. If no packets are shown the sender has not sent any weather packets the latest 10 day(s).
| Time | Temp. | Humidity | Pressure | Rain* | Wind** | Luminosity | Snow |
|---|---|---|---|---|---|---|---|
| 1777406444 | 17.78° C | 85% | 1104.8 hPa | 0 mm | - | 118 W/m² | - |
| 1777406144 | 17.78° C | 85% | 1104.6 hPa | 0 mm | - | 165 W/m² | - |
| 1777405840 | 17.22° C | 86% | 1104.9 hPa | 0 mm | - | 259 W/m² | - |
| 1777405536 | 18.33° C | 83% | 1105.1 hPa | 0 mm | - | 179 W/m² | - |
| 1777405234 | 18.89° C | 81% | 1105 hPa | 0 mm | - | 258 W/m² | - |
| 1777404932 | 19.44° C | 79% | 1105 hPa | 0 mm | - | 180 W/m² | - |
| 1777404628 | 18.89° C | 79% | 1105.1 hPa | 0 mm | - | 351 W/m² | - |
| 1777404324 | 20° C | 77% | 1104.8 hPa | 0 mm | - | 646 W/m² | - |
| 1777404021 | 19.44° C | 80% | 1104.9 hPa | 0 mm | - | 450 W/m² | - |
| 1777403716 | 18.89° C | 79% | 1104.9 hPa | 0 mm | - | 412 W/m² | - |
| 1777403415 | 20° C | 78% | 1105 hPa | 0 mm | - | 290 W/m² | - |
| 1777403110 | 20.56° C | 74% | 1105 hPa | 0 mm | - | 376 W/m² | - |
| 1777402806 | 21.67° C | 70% | 1104.8 hPa | 0 mm | - | 990 W/m² | - |
| 1777402503 | 22.22° C | 70% | 1105 hPa | 0 mm | - | 296 W/m² | - |
| 1777402200 | 22.78° C | 70% | 1105 hPa | 0 mm | - | 401 W/m² | - |
| 1777401894 | 20.56° C | 70% | 1105.1 hPa | 0 mm | - | 456 W/m² | - |
| 1777401593 | 19.44° C | 75% | 1105 hPa | 0 mm | - | 796 W/m² | - |
| 1777401290 | 20.56° C | 71% | 1105.3 hPa | 0 mm | - | 785 W/m² | - |
| 1777400985 | 20° C | 73% | 1105.3 hPa | 0 mm | - | 416 W/m² | - |
| 1777400681 | 20.56° C | 70% | 1105.3 hPa | 0 mm | - | 1031 W/m² | - |
| 1777400379 | 20° C | 73% | 1105.5 hPa | 0 mm | - | 768 W/m² | - |
| 1777400074 | 20.56° C | 70% | 1105.3 hPa | 0 mm | - | 496 W/m² | - |
| 1777399772 | 18.89° C | 78% | 1105.6 hPa | 0 mm | - | 581 W/m² | - |
| 1777399468 | 18.89° C | 76% | 1105.7 hPa | 0 mm | - | 926 W/m² | - |
| 1777399166 | 18.89° C | 77% | 1105.7 hPa | 0 mm | - | 1102 W/m² | - |
* Rain latest hour (hover to see other rain measurements)
** Current wind speed in m/s (hover to see current wind gust speed)